Time;durP1;ratioP1;P1;durP2;ratioP2;P2;SDS_P1;SDS_P2;PMS_P1;PMS_P2;Temp;Humidity;BMP_temperature;BMP_pressure;BME280_temperature;BME280_humidity;BME280_pressure;Samples;Min_cycle;Max_cycle;Signal;HPM_P1;HPM_P2
2024/04/02 00:01:13;;;;;;;0.80;0.30;;;;;;;;;;5021370;28;20054;-76
2024/04/02 00:03:38;;;;;;;0.38;0.28;;;;;;;;;;5028923;28;20054;-77
2024/04/02 00:06:04;;;;;;;0.75;0.50;;;;;;;;;;4999910;28;20073;-77
2024/04/02 00:08:30;;;;;;;0.60;0.32;;;;;;;;;;5009518;28;20058;-77
2024/04/02 00:11:02;;;;;;;1.13;0.30;;;;;;;;;;4984080;28;20476;-77
2024/04/02 00:13:28;;;;;;;0.82;0.55;;;;;;;;;;4962015;28;20081;-77
2024/04/02 00:15:53;;;;;;;0.55;0.35;;;;;;;;;;4977709;28;20516;-77
2024/04/02 00:18:19;;;;;;;0.50;0.47;;;;;;;;;;5004905;28;20053;-77
2024/04/02 00:20:44;;;;;;;3.03;0.50;;;;;;;;;;5009363;28;20054;-78
2024/04/02 00:23:10;;;;;;;0.60;0.50;;;;;;;;;;4977342;28;20058;-77
2024/04/02 00:25:36;;;;;;;0.77;0.30;;;;;;;;;;4976722;28;20062;-77
2024/04/02 00:28:02;;;;;;;0.38;0.38;;;;;;;;;;4977824;28;20129;-77
2024/04/02 00:30:28;;;;;;;1.67;0.30;;;;;;;;;;4994275;28;20488;-76
2024/04/02 00:32:54;;;;;;;0.75;0.50;;;;;;;;;;4960788;28;20548;-77
2024/04/02 00:35:22;;;;;;;1.33;0.30;;;;;;;;;;4976937;28;20042;-77
2024/04/02 00:37:48;;;;;;;0.35;0.28;;;;;;;;;;4992074;28;20054;-77
2024/04/02 00:40:14;;;;;;;0.47;0.40;;;;;;;;;;4959649;28;20055;-77
2024/04/02 00:42:39;;;;;;;0.82;0.50;;;;;;;;;;4961169;28;20089;-77
2024/04/02 00:45:05;;;;;;;0.40;0.40;;;;;;;;;;4963617;28;20068;-77
2024/04/02 00:47:31;;;;;;;1.58;0.50;;;;;;;;;;5009204;28;20094;-78
2024/04/02 00:49:56;;;;;;;1.20;0.50;;;;;;;;;;4993980;28;20058;-78
2024/04/02 00:52:22;;;;;;;0.50;0.40;;;;;;;;;;4977546;28;20062;-77
2024/04/02 00:54:47;;;;;;;0.47;0.40;;;;;;;;;;4960250;28;20065;-76
2024/04/02 00:57:13;;;;;;;0.80;0.43;;;;;;;;;;4976919;28;20425;-77
2024/04/02 00:59:38;;;;;;;1.20;0.70;;;;;;;;;;4976638;28;20113;-78
2024/04/02 01:02:04;;;;;;;1.80;0.50;;;;;;;;;;4962183;28;20217;-76
2024/04/02 01:04:30;;;;;;;2.13;0.40;;;;;;;;;;4975769;28;20058;-76
2024/04/02 01:06:56;;;;;;;0.68;0.40;;;;;;;;;;4958972;28;20081;-77
2024/04/02 01:09:21;;;;;;;1.20;0.60;;;;;;;;;;4959282;28;20097;-76
2024/04/02 01:11:49;;;;;;;0.60;0.50;;;;;;;;;;4960198;28;20559;-76
2024/04/02 01:14:14;;;;;;;1.08;0.30;;;;;;;;;;4958998;28;20077;-76
2024/04/02 01:16:41;;;;;;;0.93;0.40;;;;;;;;;;4974750;28;20054;-76
2024/04/02 01:19:06;;;;;;;1.23;0.40;;;;;;;;;;4994746;28;20053;-76
2024/04/02 01:21:32;;;;;;;0.75;0.40;;;;;;;;;;4971526;28;20046;-75
2024/04/02 01:23:57;;;;;;;0.38;0.30;;;;;;;;;;5010704;28;20073;-77
2024/04/02 01:26:23;;;;;;;0.60;0.50;;;;;;;;;;4995777;28;20057;-77
2024/04/02 01:28:53;;;;;;;0.70;0.70;;;;;;;;;;4978091;28;20060;-77
2024/04/02 01:31:18;;;;;;;2.10;0.55;;;;;;;;;;4972731;28;20042;-77
2024/04/02 01:33:44;;;;;;;0.32;0.32;;;;;;;;;;4994604;28;20859;-77
2024/04/02 01:36:10;;;;;;;0.82;0.40;;;;;;;;;;4986490;28;20416;-77
2024/04/02 01:38:35;;;;;;;0.95;0.40;;;;;;;;;;4979758;28;20096;-77
2024/04/02 01:41:01;;;;;;;0.73;0.40;;;;;;;;;;4966652;28;20072;-77
2024/04/02 01:43:26;;;;;;;0.20;0.13;;;;;;;;;;4998464;28;20050;-77
2024/04/02 01:45:52;;;;;;;0.70;0.50;;;;;;;;;;4984436;28;20069;-76
2024/04/02 01:48:18;;;;;;;2.63;0.38;;;;;;;;;;4997243;28;20146;-77
2024/04/02 01:50:43;;;;;;;1.17;0.35;;;;;;;;;;4998501;28;20073;-77
2024/04/02 01:53:09;;;;;;;0.68;0.28;;;;;;;;;;4972026;28;20108;-80
2024/04/02 01:55:34;;;;;;;1.20;0.52;;;;;;;;;;4987602;28;20058;-78
2024/04/02 01:58:00;;;;;;;0.43;0.28;;;;;;;;;;4989924;28;20054;-80
2024/04/02 02:00:26;;;;;;;0.80;0.38;;;;;;;;;;4989343;28;20065;-81
2024/04/02 02:02:51;;;;;;;0.52;0.30;;;;;;;;;;4992481;28;20056;-80
2024/04/02 02:05:17;;;;;;;1.95;0.38;;;;;;;;;;4988315;28;20074;-79
2024/04/02 02:07:42;;;;;;;1.50;0.70;;;;;;;;;;4997751;28;20050;-79
2024/04/02 02:10:11;;;;;;;0.55;0.38;;;;;;;;;;4998256;28;20050;-79
2024/04/02 02:12:37;;;;;;;0.32;0.32;;;;;;;;;;4987233;28;20069;-80
2024/04/02 02:15:03;;;;;;;0.50;0.40;;;;;;;;;;4995864;28;20101;-80
2024/04/02 02:17:29;;;;;;;0.43;0.40;;;;;;;;;;5019235;28;20054;-80
2024/04/02 02:19:54;;;;;;;1.40;0.47;;;;;;;;;;4991519;28;20042;-79
2024/04/02 02:22:20;;;;;;;0.30;0.20;;;;;;;;;;4978127;28;20058;-80
2024/04/02 02:24:45;;;;;;;0.52;0.50;;;;;;;;;;4997157;28;20054;-80
2024/04/02 02:27:11;;;;;;;0.22;0.20;;;;;;;;;;4995714;28;20046;-79
2024/04/02 02:29:36;;;;;;;0.80;0.40;;;;;;;;;;4986267;28;20054;-81
2024/04/02 02:32:03;;;;;;;0.40;0.35;;;;;;;;;;4997175;28;20053;-81
2024/04/02 02:34:29;;;;;;;2.15;0.32;;;;;;;;;;4995153;28;20069;-81
2024/04/02 02:36:54;;;;;;;0.32;0.32;;;;;;;;;;4993433;28;20302;-79
2024/04/02 02:39:20;;;;;;;0.20;0.20;;;;;;;;;;4997707;28;20060;-78
2024/04/02 02:41:46;;;;;;;0.40;0.32;;;;;;;;;;4991102;28;20133;-78
2024/04/02 02:44:11;;;;;;;1.00;0.40;;;;;;;;;;4986056;28;20076;-79
2024/04/02 02:46:37;;;;;;;1.23;0.68;;;;;;;;;;4989105;28;20057;-79
2024/04/02 02:49:03;;;;;;;0.73;0.38;;;;;;;;;;4999885;28;20054;-79
2024/04/02 02:51:28;;;;;;;2.25;0.88;;;;;;;;;;5019254;28;20053;-79
2024/04/02 02:53:54;;;;;;;0.43;0.32;;;;;;;;;;4993306;28;20042;-80
2024/04/02 02:56:19;;;;;;;0.43;0.35;;;;;;;;;;4998964;28;20049;-79
2024/04/02 02:58:45;;;;;;;0.20;0.20;;;;;;;;;;5011848;28;20061;-80
2024/04/02 03:01:11;;;;;;;1.17;0.30;;;;;;;;;;4977785;28;20520;-80
2024/04/02 03:03:37;;;;;;;0.65;0.40;;;;;;;;;;5000713;28;20096;-79
2024/04/02 03:06:02;;;;;;;0.35;0.30;;;;;;;;;;5004394;28;20053;-79
2024/04/02 03:08:28;;;;;;;1.23;0.35;;;;;;;;;;5007573;28;20053;-78
2024/04/02 03:11:03;;;;;;;1.20;0.30;;;;;;;;;;5002953;28;20068;-77
2024/04/02 03:13:29;;;;;;;0.68;0.30;;;;;;;;;;5005860;28;20767;-77
2024/04/02 03:15:55;;;;;;;1.38;0.30;;;;;;;;;;4998551;28;20054;-78
2024/04/02 03:18:21;;;;;;;0.30;0.30;;;;;;;;;;5000163;28;20078;-78
2024/04/02 03:20:46;;;;;;;0.52;0.30;;;;;;;;;;4983707;28;20053;-77
2024/04/02 03:23:12;;;;;;;0.52;0.30;;;;;;;;;;5017436;28;20077;-76
2024/04/02 03:25:38;;;;;;;0.60;0.32;;;;;;;;;;5000428;28;20089;-78
2024/04/02 03:28:04;;;;;;;0.85;0.20;;;;;;;;;;4971744;28;20058;-79
2024/04/02 03:30:29;;;;;;;0.68;0.35;;;;;;;;;;4999353;28;20062;-78
2024/04/02 03:32:55;;;;;;;0.30;0.30;;;;;;;;;;5011159;28;20065;-78
2024/04/02 03:35:20;;;;;;;0.73;0.30;;;;;;;;;;4987576;28;20050;-78
2024/04/02 03:37:46;;;;;;;0.80;0.30;;;;;;;;;;5000398;28;20050;-78
2024/04/02 03:40:12;;;;;;;0.30;0.20;;;;;;;;;;5007936;28;20083;-77
2024/04/02 03:42:37;;;;;;;0.38;0.38;;;;;;;;;;4996154;28;20427;-78
2024/04/02 03:45:03;;;;;;;0.40;0.35;;;;;;;;;;4966900;28;20058;-79
2024/04/02 03:47:29;;;;;;;0.70;0.50;;;;;;;;;;4985430;28;20057;-79
2024/04/02 03:49:54;;;;;;;0.25;0.25;;;;;;;;;;4984404;28;20085;-79
2024/04/02 03:52:20;;;;;;;0.20;0.20;;;;;;;;;;4987217;28;20054;-78
2024/04/02 03:54:46;;;;;;;0.85;0.45;;;;;;;;;;4973720;28;20077;-78
2024/04/02 03:57:11;;;;;;;1.40;0.40;;;;;;;;;;4970772;28;20038;-79
2024/04/02 03:59:37;;;;;;;0.38;0.38;;;;;;;;;;4975627;28;20054;-78
2024/04/02 04:02:03;;;;;;;0.75;0.28;;;;;;;;;;5003077;28;20540;-78
2024/04/02 04:04:28;;;;;;;0.30;0.30;;;;;;;;;;4969505;28;20054;-78
2024/04/02 04:06:57;;;;;;;0.43;0.43;;;;;;;;;;4984491;28;20077;-78
2024/04/02 04:09:25;;;;;;;1.42;0.35;;;;;;;;;;5002516;28;20054;-77
2024/04/02 04:11:51;;;;;;;0.70;0.30;;;;;;;;;;4989949;28;20055;-78
2024/04/02 04:14:17;;;;;;;0.20;0.20;;;;;;;;;;4966585;28;20081;-80
2024/04/02 04:16:42;;;;;;;0.30;0.30;;;;;;;;;;4967574;28;20433;-79
2024/04/02 04:19:08;;;;;;;0.47;0.32;;;;;;;;;;4987000;28;20096;-79
2024/04/02 04:21:33;;;;;;;0.22;0.22;;;;;;;;;;4984335;28;20101;-78
2024/04/02 04:23:59;;;;;;;0.88;0.30;;;;;;;;;;4999668;28;20054;-78
2024/04/02 04:26:24;;;;;;;1.45;0.40;;;;;;;;;;4982372;28;20058;-78
2024/04/02 04:28:50;;;;;;;0.60;0.40;;;;;;;;;;4992286;28;20058;-78
2024/04/02 04:31:15;;;;;;;1.55;0.32;;;;;;;;;;4981659;28;20081;-79
2024/04/02 04:33:41;;;;;;;0.88;0.30;;;;;;;;;;4975869;28;20527;-78
2024/04/02 04:36:07;;;;;;;0.80;0.40;;;;;;;;;;4975459;28;20077;-79
2024/04/02 04:38:32;;;;;;;0.30;0.20;;;;;;;;;;4975643;28;20424;-79
2024/04/02 04:40:58;;;;;;;0.85;0.30;;;;;;;;;;4962966;28;20420;-78
2024/04/02 04:43:24;;;;;;;0.30;0.30;;;;;;;;;;4995851;28;20062;-79
2024/04/02 04:46:00;;;;;;;0.93;0.55;;;;;;;;;;4993924;28;20061;-80
2024/04/02 04:48:25;;;;;;;0.38;0.20;;;;;;;;;;4980568;28;20117;-78
2024/04/02 04:50:57;;;;;;;0.50;0.35;;;;;;;;;;4966737;28;20086;-79
2024/04/02 04:53:23;;;;;;;3.33;0.30;;;;;;;;;;5004864;28;20054;-79
2024/04/02 04:55:49;;;;;;;0.30;0.30;;;;;;;;;;4981158;28;20129;-76
2024/04/02 04:58:14;;;;;;;0.70;0.40;;;;;;;;;;4965442;28;20808;-77
2024/04/02 05:00:40;;;;;;;0.57;0.43;;;;;;;;;;4977947;28;20477;-78
2024/04/02 05:03:05;;;;;;;0.20;0.15;;;;;;;;;;4975594;28;20136;-77
2024/04/02 05:05:31;;;;;;;1.75;0.40;;;;;;;;;;4975799;28;20050;-77
2024/04/02 05:08:14;;;;;;;0.63;0.30;;;;;;;;;;4966420;28;20065;-77
2024/04/02 05:10:39;;;;;;;1.83;0.93;;;;;;;;;;4975027;28;20108;-77
2024/04/02 05:13:08;;;;;;;0.75;0.40;;;;;;;;;;4991231;28;20086;-77
2024/04/02 05:15:34;;;;;;;0.82;0.40;;;;;;;;;;4961041;28;20046;-77
2024/04/02 05:18:00;;;;;;;0.80;0.30;;;;;;;;;;4999771;28;20505;-78
2024/04/02 05:20:25;;;;;;;0.88;0.40;;;;;;;;;;4959942;28;20061;-77
2024/04/02 05:22:52;;;;;;;2.00;0.85;;;;;;;;;;4985205;28;20051;-77
2024/04/02 05:25:17;;;;;;;2.13;0.90;;;;;;;;;;4959687;28;20062;-77
2024/04/02 05:27:43;;;;;;;2.13;1.00;;;;;;;;;;4966523;28;20505;-77
2024/04/02 05:30:08;;;;;;;1.13;0.38;;;;;;;;;;5001530;28;20062;-77
2024/04/02 05:32:34;;;;;;;0.40;0.40;;;;;;;;;;4991035;28;20129;-77
2024/04/02 05:35:01;;;;;;;1.00;0.40;;;;;;;;;;4959793;28;20093;-76
2024/04/02 05:37:26;;;;;;;1.20;0.30;;;;;;;;;;4963321;28;20468;-78
2024/04/02 05:39:52;;;;;;;0.47;0.47;;;;;;;;;;4963591;28;20092;-78
2024/04/02 05:42:17;;;;;;;0.38;0.28;;;;;;;;;;4977962;28;20405;-77
2024/04/02 05:44:43;;;;;;;1.00;0.30;;;;;;;;;;4971287;28;20119;-77
2024/04/02 05:47:08;;;;;;;0.90;0.80;;;;;;;;;;4995344;28;20058;-77
2024/04/02 05:49:34;;;;;;;0.40;0.40;;;;;;;;;;5007754;28;20569;-76
2024/04/02 05:51:59;;;;;;;0.40;0.40;;;;;;;;;;4975046;28;20058;-77
2024/04/02 05:54:25;;;;;;;0.85;0.50;;;;;;;;;;4991968;28;20051;-76
2024/04/02 05:56:51;;;;;;;0.25;0.25;;;;;;;;;;4979584;28;20464;-77
2024/04/02 05:59:16;;;;;;;0.50;0.50;;;;;;;;;;4975161;28;20057;-76
2024/04/02 06:01:42;;;;;;;0.38;0.28;;;;;;;;;;4974264;28;20046;-76
2024/04/02 06:04:08;;;;;;;1.33;0.40;;;;;;;;;;4983536;28;20080;-78
2024/04/02 06:06:33;;;;;;;0.63;0.30;;;;;;;;;;4979317;28;20062;-78
2024/04/02 06:08:59;;;;;;;1.55;0.47;;;;;;;;;;4978286;28;20488;-79
2024/04/02 06:11:24;;;;;;;0.20;0.20;;;;;;;;;;4962371;28;20054;-78
2024/04/02 06:13:50;;;;;;;0.90;0.50;;;;;;;;;;4976062;28;20058;-77
2024/04/02 06:16:16;;;;;;;0.28;0.20;;;;;;;;;;4977777;28;20072;-80
2024/04/02 06:18:41;;;;;;;0.40;0.30;;;;;;;;;;4991144;28;20050;-80
2024/04/02 06:21:07;;;;;;;1.65;0.30;;;;;;;;;;4962413;28;20096;-80
2024/04/02 06:23:33;;;;;;;0.55;0.30;;;;;;;;;;4991371;28;20092;-79
2024/04/02 06:25:58;;;;;;;1.10;0.30;;;;;;;;;;4959330;28;20047;-82
2024/04/02 06:28:24;;;;;;;0.80;0.50;;;;;;;;;;4991854;28;20531;-79
2024/04/02 06:30:49;;;;;;;3.20;0.50;;;;;;;;;;4976422;28;20484;-79
2024/04/02 06:33:15;;;;;;;0.38;0.35;;;;;;;;;;4976536;28;20090;-79
2024/04/02 06:35:40;;;;;;;1.67;1.00;;;;;;;;;;4975168;28;20054;-77
2024/04/02 06:38:06;;;;;;;0.88;0.40;;;;;;;;;;4978898;28;20058;-77
2024/04/02 06:40:32;;;;;;;0.73;0.40;;;;;;;;;;4960010;28;20108;-76
2024/04/02 06:42:57;;;;;;;1.65;0.50;;;;;;;;;;4959877;28;20054;-76
2024/04/02 06:45:23;;;;;;;0.63;0.28;;;;;;;;;;4968316;28;20105;-76
2024/04/02 06:47:52;;;;;;;0.65;0.32;;;;;;;;;;4980312;28;20061;-77
2024/04/02 06:50:17;;;;;;;1.38;0.30;;;;;;;;;;4976450;28;20057;-77
2024/04/02 06:52:43;;;;;;;1.05;0.30;;;;;;;;;;4976994;28;20050;-77
2024/04/02 06:55:08;;;;;;;1.45;0.43;;;;;;;;;;4974615;28;20097;-74
2024/04/02 06:57:34;;;;;;;1.85;0.30;;;;;;;;;;4967059;28;20046;-84
2024/04/02 06:59:59;;;;;;;0.20;0.20;;;;;;;;;;4997769;28;20105;-72
2024/04/02 07:02:26;;;;;;;0.15;0.15;;;;;;;;;;4985122;28;20069;-75
2024/04/02 07:04:52;;;;;;;0.40;0.40;;;;;;;;;;5000350;28;20069;-79
2024/04/02 07:07:18;;;;;;;0.70;0.10;;;;;;;;;;4976101;28;20050;-73
2024/04/02 07:09:43;;;;;;;0.40;0.30;;;;;;;;;;4974431;28;20058;-71
2024/04/02 07:12:10;;;;;;;0.45;0.17;;;;;;;;;;4978473;28;20050;-77
2024/04/02 07:14:36;;;;;;;0.98;0.75;;;;;;;;;;4981860;28;21083;-78
2024/04/02 07:17:02;;;;;;;1.45;0.80;;;;;;;;;;4961009;28;20046;-77
2024/04/02 07:19:28;;;;;;;2.05;0.80;;;;;;;;;;4979870;28;20113;-78
2024/04/02 07:21:53;;;;;;;2.17;0.80;;;;;;;;;;4987572;28;20093;-77
2024/04/02 07:24:19;;;;;;;0.88;0.40;;;;;;;;;;4982716;28;20408;-77
2024/04/02 07:26:45;;;;;;;1.42;1.00;;;;;;;;;;4962619;28;20482;-78
2024/04/02 07:29:10;;;;;;;1.70;0.40;;;;;;;;;;4974968;28;20058;-76
2024/04/02 07:31:36;;;;;;;0.85;0.40;;;;;;;;;;4953305;28;20050;-78
2024/04/02 07:34:02;;;;;;;6.10;1.10;;;;;;;;;;4982637;28;20045;-78
2024/04/02 07:36:28;;;;;;;2.08;0.68;;;;;;;;;;5005532;28;20054;-77
2024/04/02 07:38:53;;;;;;;1.67;0.30;;;;;;;;;;4990699;28;20085;-78
2024/04/02 07:41:19;;;;;;;2.80;0.60;;;;;;;;;;4999508;28;20054;-77
2024/04/02 07:43:44;;;;;;;1.58;0.50;;;;;;;;;;4960988;28;20061;-77
2024/04/02 07:46:10;;;;;;;1.65;0.47;;;;;;;;;;4977786;28;20053;-76
2024/04/02 07:48:36;;;;;;;1.88;0.65;;;;;;;;;;4961620;28;20058;-77
2024/04/02 07:51:10;;;;;;;1.05;0.80;;;;;;;;;;5003964;28;20061;-78
2024/04/02 07:53:36;;;;;;;1.23;0.40;;;;;;;;;;4971500;28;20054;-76
2024/04/02 07:56:02;;;;;;;2.10;0.40;;;;;;;;;;4994419;28;20667;-80
2024/04/02 07:58:28;;;;;;;6.13;0.55;;;;;;;;;;4954225;28;20046;-78
2024/04/02 08:00:53;;;;;;;3.03;0.30;;;;;;;;;;5000501;28;20054;-81
2024/04/02 08:03:19;;;;;;;3.53;0.60;;;;;;;;;;4954748;28;20082;-80
2024/04/02 08:05:44;;;;;;;2.22;0.50;;;;;;;;;;4988707;28;20058;-79
2024/04/02 08:08:10;;;;;;;2.20;0.30;;;;;;;;;;5007514;28;20057;-77
2024/04/02 08:10:35;;;;;;;1.27;0.63;;;;;;;;;;5004050;28;20112;-80
2024/04/02 08:13:01;;;;;;;4.80;0.95;;;;;;;;;;5019415;28;20054;-83
2024/04/02 08:15:26;;;;;;;3.08;0.88;;;;;;;;;;5018451;28;20064;-76
2024/04/02 08:17:52;;;;;;;3.13;0.50;;;;;;;;;;5018941;28;20026;-81
2024/04/02 08:20:18;;;;;;;1.75;0.40;;;;;;;;;;4993747;28;20070;-78
2024/04/02 08:22:43;;;;;;;0.50;0.20;;;;;;;;;;5001749;28;20050;-82
2024/04/02 08:25:10;;;;;;;0.73;0.70;;;;;;;;;;4982039;28;20093;-77
2024/04/02 08:27:36;;;;;;;0.75;0.30;;;;;;;;;;5008118;28;20424;-75
2024/04/02 08:30:05;;;;;;;1.42;0.38;;;;;;;;;;4980272;28;20057;-79
2024/04/02 08:32:31;;;;;;;3.22;0.50;;;;;;;;;;4955624;28;20058;-76
2024/04/02 08:34:56;;;;;;;0.90;0.50;;;;;;;;;;4962628;28;20046;-76
2024/04/02 08:37:22;;;;;;;4.32;0.77;;;;;;;;;;5004288;28;20049;-75
2024/04/02 08:39:48;;;;;;;4.28;0.47;;;;;;;;;;4999730;28;20050;-77
2024/04/02 08:42:14;;;;;;;1.38;0.30;;;;;;;;;;4959791;28;20365;-73
2024/04/02 08:44:41;;;;;;;1.88;0.50;;;;;;;;;;4961077;28;20053;-78
2024/04/02 08:47:06;;;;;;;4.35;0.47;;;;;;;;;;5006257;28;20094;-74
2024/04/02 08:49:32;;;;;;;1.42;0.80;;;;;;;;;;4977828;28;20062;-76
2024/04/02 08:52:01;;;;;;;3.40;0.70;;;;;;;;;;4984360;28;20085;-77
2024/04/02 08:54:28;;;;;;;1.63;0.60;;;;;;;;;;4969879;28;20054;-75
2024/04/02 08:56:54;;;;;;;1.05;0.40;;;;;;;;;;4961230;28;20643;-76
2024/04/02 08:59:19;;;;;;;1.17;0.28;;;;;;;;;;5002010;28;20137;-77
2024/04/02 09:01:45;;;;;;;0.43;0.25;;;;;;;;;;4950073;28;20058;-76
2024/04/02 09:04:12;;;;;;;3.35;0.57;;;;;;;;;;4962634;28;20053;-78
2024/04/02 09:06:38;;;;;;;1.38;0.32;;;;;;;;;;4961428;28;20054;-77
2024/04/02 09:09:06;;;;;;;1.10;0.28;;;;;;;;;;4959972;28;20046;-78
2024/04/02 09:11:32;;;;;;;1.48;0.30;;;;;;;;;;5000841;28;20050;-79
2024/04/02 09:14:04;;;;;;;10.02;0.55;;;;;;;;;;5000957;28;20050;-78
2024/04/02 09:16:30;;;;;;;3.38;0.43;;;;;;;;;;5005007;28;20053;-75
2024/04/02 09:18:57;;;;;;;0.95;0.52;;;;;;;;;;4996697;28;20049;-76
2024/04/02 09:21:23;;;;;;;1.30;0.30;;;;;;;;;;4998436;28;20057;-74
2024/04/02 09:23:48;;;;;;;4.47;0.60;;;;;;;;;;4986983;28;20061;-75
2024/04/02 09:26:14;;;;;;;3.83;1.50;;;;;;;;;;4960725;28;20519;-75
2024/04/02 09:28:40;;;;;;;4.07;1.10;;;;;;;;;;4948586;28;20049;-75
2024/04/02 09:31:05;;;;;;;1.17;0.40;;;;;;;;;;5000482;28;20054;-75
2024/04/02 09:33:31;;;;;;;1.85;0.47;;;;;;;;;;4974711;28;20500;-75
2024/04/02 09:35:56;;;;;;;3.72;0.70;;;;;;;;;;4967239;28;20053;-75
2024/04/02 09:38:22;;;;;;;3.92;0.60;;;;;;;;;;4974190;28;20536;-75
2024/04/02 09:40:49;;;;;;;4.18;1.55;;;;;;;;;;4975164;28;20057;-75
2024/04/02 09:43:14;;;;;;;3.03;0.47;;;;;;;;;;4970799;28;20104;-75
2024/04/02 09:45:41;;;;;;;4.82;0.77;;;;;;;;;;4983718;28;20527;-76
2024/04/02 09:48:07;;;;;;;3.53;0.50;;;;;;;;;;4989636;28;20054;-75
2024/04/02 09:50:32;;;;;;;1.52;0.68;;;;;;;;;;4959983;28;20060;-75
2024/04/02 09:52:58;;;;;;;0.93;0.52;;;;;;;;;;4947009;28;20081;-75
2024/04/02 09:55:24;;;;;;;2.38;0.57;;;;;;;;;;4980291;28;20496;-75
2024/04/02 09:57:50;;;;;;;4.68;0.68;;;;;;;;;;4963275;28;20053;-75
2024/04/02 10:00:15;;;;;;;3.17;0.60;;;;;;;;;;4950091;28;20421;-73
2024/04/02 10:02:41;;;;;;;3.63;0.50;;;;;;;;;;5001075;28;20431;-73
2024/04/02 10:05:09;;;;;;;3.88;0.80;;;;;;;;;;4961733;28;20053;-74
2024/04/02 10:07:39;;;;;;;1.25;0.50;;;;;;;;;;4984005;28;20034;-72
2024/04/02 10:10:05;;;;;;;1.80;0.60;;;;;;;;;;4980867;28;20061;-73
2024/04/02 10:12:31;;;;;;;3.25;0.60;;;;;;;;;;5006563;28;20058;-74
2024/04/02 10:14:57;;;;;;;3.70;0.85;;;;;;;;;;4982960;28;20054;-74
2024/04/02 10:17:23;;;;;;;4.28;1.08;;;;;;;;;;4992283;28;20084;-74
2024/04/02 10:19:48;;;;;;;3.78;0.80;;;;;;;;;;4994161;28;20129;-74
2024/04/02 10:22:36;;;;;;;2.58;0.98;;;;;;;;;;4975574;28;20050;-75
2024/04/02 10:25:12;;;;;;;2.03;0.70;;;;;;;;;;4974120;28;20050;-74
2024/04/02 10:27:40;;;;;;;3.40;0.75;;;;;;;;;;4980867;28;20070;-74
2024/04/02 10:30:27;;;;;;;3.85;1.05;;;;;;;;;;4996735;28;20050;-74
2024/04/02 10:32:56;;;;;;;4.10;0.70;;;;;;;;;;4948914;28;20467;-74
2024/04/02 10:35:23;;;;;;;1.80;0.50;;;;;;;;;;4960561;28;20049;-79
2024/04/02 10:37:49;;;;;;;2.63;0.88;;;;;;;;;;4996850;28;20053;-74
2024/04/02 10:40:16;;;;;;;0.55;0.30;;;;;;;;;;4996623;28;20504;-73
2024/04/02 10:42:45;;;;;;;1.30;0.60;;;;;;;;;;4983210;28;20500;-74
2024/04/02 10:45:11;;;;;;;2.60;0.80;;;;;;;;;;4970144;28;20066;-74
2024/04/02 10:47:43;;;;;;;3.42;0.50;;;;;;;;;;4985191;28;20066;-74
2024/04/02 10:50:09;;;;;;;3.85;0.73;;;;;;;;;;4957358;28;20058;-74
2024/04/02 10:52:35;;;;;;;2.72;0.93;;;;;;;;;;4962478;28;20100;-75
2024/04/02 10:55:01;;;;;;;2.40;0.47;;;;;;;;;;4957322;28;20432;-74
2024/04/02 10:57:27;;;;;;;1.65;0.40;;;;;;;;;;4995866;28;20054;-78
2024/04/02 10:59:52;;;;;;;4.53;0.70;;;;;;;;;;4952604;28;20109;-77
2024/04/02 11:02:21;;;;;;;3.90;0.65;;;;;;;;;;4984930;28;20050;-78
2024/04/02 11:04:46;;;;;;;3.95;0.70;;;;;;;;;;4953750;28;20050;-78
2024/04/02 11:07:12;;;;;;;2.47;0.63;;;;;;;;;;4984763;28;20132;-79
2024/04/02 11:09:42;;;;;;;2.15;0.30;;;;;;;;;;4964103;28;20334;-78
2024/04/02 11:12:08;;;;;;;1.88;0.35;;;;;;;;;;4997634;28;20059;-79
2024/04/02 11:14:34;;;;;;;1.73;0.52;;;;;;;;;;4955271;28;20054;-79
2024/04/02 11:16:59;;;;;;;2.15;0.35;;;;;;;;;;4982865;28;20130;-79
2024/04/02 11:19:25;;;;;;;2.03;0.52;;;;;;;;;;5005366;28;20736;-81
2024/04/02 11:24:57;;;;;;;1.80;0.60;;;;;;;;;;4952632;28;20054;-78
2024/04/02 11:27:22;;;;;;;3.65;0.32;;;;;;;;;;4983205;28;20051;-79
2024/04/02 11:29:48;;;;;;;1.73;0.40;;;;;;;;;;4999008;28;20104;-78
2024/04/02 11:32:13;;;;;;;1.73;0.43;;;;;;;;;;4958949;28;20054;-76
2024/04/02 11:34:39;;;;;;;1.05;0.82;;;;;;;;;;4984933;28;20050;-81
2024/04/02 11:37:05;;;;;;;7.55;0.57;;;;;;;;;;4979591;28;20469;-79
2024/04/02 11:39:30;;;;;;;2.65;0.40;;;;;;;;;;5003024;28;20088;-78
2024/04/02 11:41:56;;;;;;;2.90;0.40;;;;;;;;;;5007237;28;20050;-79
2024/04/02 11:44:21;;;;;;;1.52;0.30;;;;;;;;;;4991755;28;20401;-79
2024/04/02 11:46:48;;;;;;;1.80;0.55;;;;;;;;;;4963690;28;20062;-80
2024/04/02 11:49:15;;;;;;;1.30;0.30;;;;;;;;;;4989091;28;20062;-78
2024/04/02 11:51:40;;;;;;;1.15;0.40;;;;;;;;;;4986893;28;20582;-77
2024/04/02 11:54:06;;;;;;;1.10;0.50;;;;;;;;;;4984353;28;20050;-78
2024/04/02 12:02:01;;;;;;;1.08;0.47;;;;;;;;;;4981438;28;20050;-78
2024/04/02 12:04:26;;;;;;;3.03;0.52;;;;;;;;;;5005436;28;20097;-78
2024/04/02 12:06:56;;;;;;;1.58;0.57;;;;;;;;;;4970651;28;20501;-79
2024/04/02 12:09:22;;;;;;;1.40;0.50;;;;;;;;;;4994640;28;20046;-78
2024/04/02 12:11:47;;;;;;;1.50;0.68;;;;;;;;;;4970145;28;20038;-78
2024/04/02 12:14:13;;;;;;;2.22;0.85;;;;;;;;;;5012343;28;20125;-78
2024/04/02 12:16:39;;;;;;;1.85;0.35;;;;;;;;;;5012903;28;20112;-78
2024/04/02 12:19:05;;;;;;;0.93;0.40;;;;;;;;;;4985824;28;20051;-78
2024/04/02 12:21:31;;;;;;;1.20;0.40;;;;;;;;;;4993802;28;20060;-77
2024/04/02 12:23:56;;;;;;;1.17;0.40;;;;;;;;;;4974691;28;20062;-78
2024/04/02 12:26:22;;;;;;;1.55;0.55;;;;;;;;;;4993223;28;20050;-78
2024/04/02 12:28:47;;;;;;;2.40;0.40;;;;;;;;;;4991759;28;20065;-78
2024/04/02 12:31:13;;;;;;;1.00;0.28;;;;;;;;;;4988592;28;20125;-78
2024/04/02 12:33:39;;;;;;;2.55;0.30;;;;;;;;;;4994774;28;20050;-78
2024/04/02 12:36:05;;;;;;;2.38;0.30;;;;;;;;;;4970552;28;20066;-78
2024/04/02 12:38:31;;;;;;;1.67;0.47;;;;;;;;;;4995961;28;20053;-78
2024/04/02 12:41:00;;;;;;;0.43;0.30;;;;;;;;;;4997513;28;20050;-78
2024/04/02 12:43:26;;;;;;;1.38;0.50;;;;;;;;;;4972753;28;20463;-78
2024/04/02 12:45:52;;;;;;;2.90;0.28;;;;;;;;;;5013009;28;20065;-78
2024/04/02 12:48:17;;;;;;;2.13;0.60;;;;;;;;;;4989527;28;20072;-77
2024/04/02 12:50:51;;;;;;;1.88;0.30;;;;;;;;;;4961343;28;20054;-76
2024/04/02 12:53:16;;;;;;;0.93;0.35;;;;;;;;;;4998637;28;20081;-79
2024/04/02 12:55:42;;;;;;;3.22;1.00;;;;;;;;;;4965849;28;20045;-80
2024/04/02 12:58:07;;;;;;;2.10;0.88;;;;;;;;;;4977198;28;20098;-82
2024/04/02 13:00:40;;;;;;;2.63;0.40;;;;;;;;;;5018426;28;20104;-80
2024/04/02 13:03:05;;;;;;;2.63;0.60;;;;;;;;;;5010086;28;20084;-81
2024/04/02 13:05:35;;;;;;;4.30;1.83;;;;;;;;;;5012126;28;20058;-81
2024/04/02 13:08:00;;;;;;;1.77;0.38;;;;;;;;;;5014319;28;20050;-81
2024/04/02 13:10:26;;;;;;;1.85;1.00;;;;;;;;;;5000707;28;20113;-81
2024/04/02 13:12:51;;;;;;;0.85;0.50;;;;;;;;;;5003070;28;20049;-81
2024/04/02 13:15:17;;;;;;;1.67;0.60;;;;;;;;;;5001451;28;20054;-80
2024/04/02 13:17:43;;;;;;;1.30;0.47;;;;;;;;;;5001198;28;20109;-81
2024/04/02 13:20:10;;;;;;;2.30;1.45;;;;;;;;;;4976138;28;20085;-80
2024/04/02 13:22:35;;;;;;;1.23;0.60;;;;;;;;;;5014970;28;20038;-81
2024/04/02 13:25:01;;;;;;;2.22;0.90;;;;;;;;;;4985839;28;20259;-80
2024/04/02 13:27:27;;;;;;;1.88;0.98;;;;;;;;;;5023957;28;20046;-80
2024/04/02 13:29:53;;;;;;;0.70;0.20;;;;;;;;;;4978555;28;20050;-80
2024/04/02 13:32:19;;;;;;;2.20;0.77;;;;;;;;;;4957231;28;20073;-78
2024/04/02 13:34:46;;;;;;;0.63;0.20;;;;;;;;;;5002504;28;20488;-77
2024/04/02 13:37:12;;;;;;;0.75;0.30;;;;;;;;;;4982285;28;20054;-77
2024/04/02 13:39:40;;;;;;;0.73;0.60;;;;;;;;;;5000919;28;20073;-78
2024/04/02 13:42:05;;;;;;;1.75;0.40;;;;;;;;;;4985983;28;20054;-77
2024/04/02 13:44:31;;;;;;;1.23;0.40;;;;;;;;;;5002024;28;20054;-77
2024/04/02 13:46:57;;;;;;;0.40;0.40;;;;;;;;;;4960424;28;20057;-77
2024/04/02 13:49:22;;;;;;;0.55;0.30;;;;;;;;;;4962130;28;20069;-77
2024/04/02 13:51:48;;;;;;;1.45;0.30;;;;;;;;;;4988816;28;20109;-77
2024/04/02 13:54:13;;;;;;;1.45;0.30;;;;;;;;;;4990089;28;20046;-77
2024/04/02 13:56:39;;;;;;;1.15;0.73;;;;;;;;;;4959843;28;20117;-77
2024/04/02 13:59:04;;;;;;;0.82;0.30;;;;;;;;;;5003425;28;20436;-78
2024/04/02 14:01:30;;;;;;;1.83;0.60;;;;;;;;;;4987354;28;20069;-80
2024/04/02 14:03:56;;;;;;;0.82;0.30;;;;;;;;;;4982289;28;20065;-77
2024/04/02 14:06:21;;;;;;;1.73;0.30;;;;;;;;;;4976490;28;20187;-77
2024/04/02 14:08:47;;;;;;;1.50;0.60;;;;;;;;;;5000813;28;20058;-77
2024/04/02 14:11:13;;;;;;;0.95;0.80;;;;;;;;;;4959930;28;20050;-77
2024/04/02 14:13:42;;;;;;;2.55;0.40;;;;;;;;;;4971437;28;20054;-77
2024/04/02 14:16:09;;;;;;;0.60;0.35;;;;;;;;;;4995472;28;20054;-77
2024/04/02 14:18:35;;;;;;;0.63;0.30;;;;;;;;;;4962231;28;20046;-77
2024/04/02 14:21:02;;;;;;;1.77;0.30;;;;;;;;;;4980961;28;20046;-77
2024/04/02 14:23:27;;;;;;;0.68;0.20;;;;;;;;;;4964223;28;20101;-77
2024/04/02 14:26:03;;;;;;;0.20;0.10;;;;;;;;;;4974099;28;20058;-77
2024/04/02 14:28:28;;;;;;;0.52;0.20;;;;;;;;;;4973951;28;20050;-77
2024/04/02 14:31:03;;;;;;;1.23;0.40;;;;;;;;;;4989888;28;20544;-77
2024/04/02 14:33:29;;;;;;;1.30;0.28;;;;;;;;;;4986446;28;20050;-77
2024/04/02 14:35:55;;;;;;;1.25;0.95;;;;;;;;;;4977474;28;20413;-81
2024/04/02 14:38:21;;;;;;;0.80;0.20;;;;;;;;;;4993792;28;20054;-80
2024/04/02 14:40:47;;;;;;;0.30;0.20;;;;;;;;;;4971591;28;20042;-80
2024/04/02 14:43:13;;;;;;;0.38;0.30;;;;;;;;;;5002537;28;20116;-80
2024/04/02 14:45:39;;;;;;;1.85;0.38;;;;;;;;;;4961563;28;20058;-79